Bemidji, MN

9:45 AM CDT on April 19, 2015 (GMT -0500)
Bemidji-Beltrami County | | Change Station
CLOSE
Current Station
Airport
Location: Bemidji,
Elevation: 1378 ft
Nearby Weather Stations

Elev 1378 ft 47.51 °N, 94.93 °W | Updated 14 minutes ago

Fog
Fog
40 °F
Feels Like 37 °F
N
5
Wind Variable Wind from SSE

Today
High -- | Low -- °F
--% Chance of Precip.
Yesterday
High -- | Low -- °F
Precip. -- in
6:23 AM 8:14 PM
New Moon, 1% visible
Pressure 29.66 in
Visibility 3.0 miles
Clouds Mostly Cloudy 300 ft
Overcast 800 ft
Windchill 37 °F
Dew Point 39 °F
Humidity 97%
Rainfall 0.36 in
Snow Depth Not available.
UV 1 out of 12
Pollen 3.20 out of 12
Air Quality Not available.
Flu Activity Local Activity
METAR KBJI 191431Z AUTO 16004KT 3SM -DZ BKN003 OVC008 05/04 A2966 RMK AO2 T00450040

More Conditions Fewer Conditions

Pressure 29.66 in
Visibility 3.0 miles
Clouds Mostly Cloudy 300 ft
Overcast 800 ft
Windchill 37 °F
Dew Point 39 °F
Humidity 97%
Rainfall 0.36 in
Snow Depth Not available.
UV 1 out of 12
Pollen 3.20 out of 12
Air Quality Not available.
Flu Activity Local Activity
METAR KBJI 191431Z AUTO 16004KT 3SM -DZ BKN003 OVC008 05/04 A2966 RMK AO2 T00450040

More Conditions Fewer Conditions

10-Day Weather Forecast

Almanac

Astronomy

Apr. 19, 2015 Rise Set
Actual Time
Civil Twilight
Nautical Twilight
Astronomical Twilight
Moon
Length of Visible Light
Length of Day
Tomorrow will be .
, % of the Moon is Illuminated

Today's Extremes

State Highs State Lows

Community

WunderPhotos

Upload Photos

1,814,826 photos uploaded!

WunderBlogs® & News

Nearby

Air Quality

  Air Quality AQ Index Pollutant
Not available.

Snow Depth

Station Depth Elevation

Earthquake Activity

City Distance Mag. Time & Date
Minimum magnitude displayed is 2.5.

Coastal Water Temperatures

Place Temperature

Stations

Nearby Weather Stations

Station Location Temp. Windchill Dew Point Humidity Wind Precip. Elev Updated Type